Time,TemperatureF,DewpointF,PressureIn,WindDirection,WindDirectionDegrees,WindSpeedMPH,WindSpeedGustMPH,Humidity,HourlyPrecipIn,Conditions,Clouds,dailyrainin,SoftwareType,DateUTC
2013-10-19 00:03:00,41.5,36.7,29.84,NE,48,0.0,0.0,83,0.00,,,0.00,meteohub,2013-10-19 05:03:00,
2013-10-19 00:08:00,41.5,36.7,29.84,NE,48,0.0,0.0,83,0.00,,,0.00,meteohub,2013-10-19 05:08:00,
2013-10-19 00:13:00,41.5,36.7,29.84,NE,48,0.0,0.0,83,0.00,,,0.00,meteohub,2013-10-19 05:13:00,
2013-10-19 00:18:00,41.5,36.5,29.84,NE,48,0.0,0.0,82,0.00,,,0.00,meteohub,2013-10-19 05:18:00,
2013-10-19 00:23:00,41.5,36.5,29.84,NE,48,0.0,0.0,82,0.00,,,0.00,meteohub,2013-10-19 05:23:00,
2013-10-19 00:28:00,41.5,36.5,29.84,NE,48,0.0,0.0,82,0.00,,,0.00,meteohub,2013-10-19 05:28:00,
2013-10-19 00:33:00,41.5,36.5,29.84,NE,48,0.0,0.0,82,0.00,,,0.00,meteohub,2013-10-19 05:33:00,
2013-10-19 00:39:00,41.5,36.5,29.84,NE,48,0.0,0.0,82,0.00,,,0.00,meteohub,2013-10-19 05:39:00,
2013-10-19 00:44:00,41.4,36.3,29.84,NE,48,0.0,0.0,82,0.00,,,0.00,meteohub,2013-10-19 05:44:00,
2013-10-19 00:49:00,41.4,36.3,29.84,NE,48,0.0,0.0,82,0.00,,,0.00,meteohub,2013-10-19 05:49:00,
2013-10-19 00:54:00,41.4,36.3,29.84,NE,48,0.0,0.0,82,0.00,,,0.00,meteohub,2013-10-19 05:54:00,
2013-10-19 00:59:00,41.2,36.1,29.84,NE,48,0.0,0.0,82,0.00,,,0.00,meteohub,2013-10-19 05:59:00,
2013-10-19 01:04:00,41.2,36.1,29.83,NE,45,0.0,0.0,82,0.00,,,0.00,meteohub,2013-10-19 06:04:00,
2013-10-19 01:09:00,41.0,36.0,29.83,NE,45,0.0,0.0,82,0.00,,,0.00,meteohub,2013-10-19 06:09:00,
2013-10-19 01:15:00,40.8,35.8,29.83,NE,45,0.0,0.0,82,0.00,,,0.00,meteohub,2013-10-19 06:15:00,
2013-10-19 01:20:00,40.6,35.6,29.83,NE,45,0.0,0.0,82,0.00,,,0.00,meteohub,2013-10-19 06:20:00,
2013-10-19 01:25:00,40.6,36.0,29.83,NE,43,0.0,0.0,83,0.00,,,0.00,meteohub,2013-10-19 06:25:00,
2013-10-19 01:30:00,40.5,35.4,29.83,NE,42,0.0,0.0,82,0.00,,,0.00,meteohub,2013-10-19 06:30:00,
2013-10-19 01:35:00,40.5,35.8,29.83,NE,42,0.0,0.0,83,0.00,,,0.00,meteohub,2013-10-19 06:35:00,
2013-10-19 01:40:00,40.3,35.6,29.83,NE,42,0.0,0.0,83,0.00,,,0.00,meteohub,2013-10-19 06:40:00,
2013-10-19 01:45:00,40.1,35.4,29.83,NE,43,0.0,0.0,83,0.00,,,0.00,meteohub,2013-10-19 06:45:00,
2013-10-19 01:50:00,39.9,35.2,29.83,NE,42,0.0,0.0,83,0.00,,,0.00,meteohub,2013-10-19 06:50:00,
2013-10-19 01:55:00,39.7,35.1,29.82,NNE,25,0.0,2.0,83,0.00,,,0.00,meteohub,2013-10-19 06:55:00,
2013-10-19 02:00:00,39.7,35.1,29.82,NNE,25,0.0,2.0,83,0.00,,,0.00,meteohub,2013-10-19 07:00:00,
2013-10-19 02:05:00,39.7,35.1,29.82,NNE,25,0.0,2.0,83,0.00,,,0.00,meteohub,2013-10-19 07:05:00,
2013-10-19 02:11:00,39.6,34.9,29.82,NNE,25,0.0,0.0,83,0.00,,,0.00,meteohub,2013-10-19 07:11:00,
2013-10-19 02:16:00,39.4,34.7,29.82,NNE,25,0.0,0.0,83,0.00,,,0.00,meteohub,2013-10-19 07:16:00,
2013-10-19 02:21:00,39.4,34.7,29.81,NNE,25,0.0,0.0,83,0.00,,,0.00,meteohub,2013-10-19 07:21:00,
2013-10-19 02:26:00,39.2,34.5,29.81,NNE,25,0.0,0.0,83,0.00,,,0.00,meteohub,2013-10-19 07:26:00,
2013-10-19 02:31:00,39.0,34.5,29.81,NNE,25,0.0,0.0,84,0.00,,,0.00,meteohub,2013-10-19 07:31:00,
2013-10-19 02:36:00,39.0,34.3,29.81,NNE,25,0.0,0.0,83,0.00,,,0.00,meteohub,2013-10-19 07:36:00,
2013-10-19 02:41:00,38.8,34.3,29.81,NNE,24,0.0,0.0,84,0.00,,,0.00,meteohub,2013-10-19 07:41:00,
2013-10-19 02:46:00,38.8,34.3,29.81,NNE,24,0.0,1.0,84,0.00,,,0.00,meteohub,2013-10-19 07:46:00,
2013-10-19 02:51:00,38.8,34.3,29.81,NNE,23,0.0,1.0,84,0.00,,,0.00,meteohub,2013-10-19 07:51:00,
2013-10-19 02:56:00,38.7,34.2,29.81,NNE,23,0.0,1.0,84,0.00,,,0.00,meteohub,2013-10-19 07:56:00,
2013-10-19 03:01:00,38.7,34.2,29.81,NNE,24,0.0,0.0,84,0.00,,,0.00,meteohub,2013-10-19 08:01:00,
2013-10-19 03:07:00,38.5,34.2,29.81,NNE,22,0.0,0.0,84,0.00,,,0.00,meteohub,2013-10-19 08:07:00,
2013-10-19 03:12:00,38.3,34.0,29.81,NNE,23,0.0,0.0,84,0.00,,,0.00,meteohub,2013-10-19 08:12:00,
2013-10-19 03:17:00,38.1,33.8,29.80,NNE,24,0.0,0.0,84,0.00,,,0.00,meteohub,2013-10-19 08:17:00,
2013-10-19 03:22:00,38.1,33.8,29.80,NNE,22,0.0,0.0,84,0.00,,,0.00,meteohub,2013-10-19 08:22:00,
2013-10-19 03:27:00,37.9,33.6,29.80,NNE,21,0.0,0.0,84,0.00,,,0.00,meteohub,2013-10-19 08:27:00,
2013-10-19 03:32:00,37.9,33.6,29.80,NNE,21,0.0,2.0,84,0.00,,,0.00,meteohub,2013-10-19 08:32:00,
2013-10-19 03:37:00,37.9,33.6,29.79,NNE,21,0.0,2.0,84,0.00,,,0.00,meteohub,2013-10-19 08:37:00,
2013-10-19 03:42:00,37.8,33.6,29.79,NNE,21,0.0,2.0,85,0.00,,,0.00,meteohub,2013-10-19 08:42:00,
2013-10-19 03:47:00,37.8,33.6,29.79,NNE,21,0.0,0.0,85,0.00,,,0.00,meteohub,2013-10-19 08:47:00,
2013-10-19 03:52:00,37.8,33.6,29.79,NNE,21,0.0,0.0,85,0.00,,,0.00,meteohub,2013-10-19 08:52:00,
2013-10-19 03:57:00,37.6,33.4,29.78,NNE,21,0.0,0.0,85,0.00,,,0.00,meteohub,2013-10-19 08:57:00,
2013-10-19 04:02:00,37.6,33.4,29.78,NNE,21,0.0,0.0,85,0.00,,,0.00,meteohub,2013-10-19 09:02:00,
2013-10-19 04:07:00,37.4,33.3,29.78,NNE,21,0.0,0.0,85,0.00,,,0.00,meteohub,2013-10-19 09:07:00,
2013-10-19 04:12:00,37.4,33.3,29.78,NNE,21,0.0,0.0,85,0.00,,,0.00,meteohub,2013-10-19 09:12:00,
2013-10-19 04:17:00,37.2,33.1,29.78,NNE,21,0.0,0.0,85,0.00,,,0.00,meteohub,2013-10-19 09:17:00,
2013-10-19 04:22:00,37.2,33.1,29.78,NNE,21,0.0,0.0,85,0.00,,,0.00,meteohub,2013-10-19 09:22:00,
2013-10-19 04:27:00,37.2,33.1,29.78,NNE,19,0.0,0.0,85,0.00,,,0.00,meteohub,2013-10-19 09:27:00,
2013-10-19 04:32:00,37.2,33.1,29.78,WNW,286,0.0,2.0,85,0.00,,,0.00,meteohub,2013-10-19 09:32:00,
2013-10-19 04:37:00,37.2,33.1,29.78,West,281,0.0,3.0,85,0.00,,,0.00,meteohub,2013-10-19 09:37:00,
2013-10-19 04:42:00,37.2,33.1,29.78,WNW,291,2.0,3.0,85,0.00,,,0.00,meteohub,2013-10-19 09:42:00,
2013-10-19 04:47:00,37.2,33.4,29.77,WNW,292,0.0,3.0,86,0.00,,,0.00,meteohub,2013-10-19 09:47:00,
2013-10-19 04:52:00,37.2,33.4,29.77,WNW,291,0.0,3.0,86,0.00,,,0.00,meteohub,2013-10-19 09:52:00,
2013-10-19 04:57:00,37.2,33.4,29.77,WNW,291,0.0,3.0,86,0.00,,,0.00,meteohub,2013-10-19 09:57:00,
2013-10-19 05:02:00,37.0,33.3,29.77,WNW,292,0.0,0.0,86,0.00,,,0.00,meteohub,2013-10-19 10:02:00,
2013-10-19 05:07:00,37.0,33.3,29.77,WNW,292,0.0,0.0,86,0.00,,,0.00,meteohub,2013-10-19 10:07:00,
2013-10-19 05:12:00,37.0,33.3,29.77,WNW,291,0.0,0.0,86,0.00,,,0.00,meteohub,2013-10-19 10:12:00,
2013-10-19 05:17:00,36.9,33.1,29.77,WNW,292,0.0,0.0,86,0.00,,,0.00,meteohub,2013-10-19 10:17:00,
2013-10-19 05:22:00,36.9,33.1,29.77,WNW,292,0.0,0.0,86,0.00,,,0.00,meteohub,2013-10-19 10:22:00,
2013-10-19 05:27:00,36.7,32.9,29.76,WNW,291,0.0,0.0,86,0.00,,,0.00,meteohub,2013-10-19 10:27:00,
2013-10-19 05:32:00,36.7,32.9,29.76,WNW,291,0.0,0.0,86,0.00,,,0.00,meteohub,2013-10-19 10:32:00,
2013-10-19 05:37:00,36.5,32.7,29.76,WNW,292,0.0,0.0,86,0.00,,,0.00,meteohub,2013-10-19 10:37:00,
2013-10-19 05:42:00,36.3,32.5,29.76,WNW,292,0.0,0.0,86,0.00,,,0.00,meteohub,2013-10-19 10:42:00,
2013-10-19 05:47:00,36.3,32.5,29.76,WNW,292,0.0,0.0,86,0.00,,,0.00,meteohub,2013-10-19 10:47:00,
2013-10-19 05:52:00,36.1,32.4,29.75,WNW,291,0.0,0.0,86,0.00,,,0.00,meteohub,2013-10-19 10:52:00,
2013-10-19 05:57:00,36.1,32.4,29.76,WNW,292,0.0,0.0,86,0.00,,,0.00,meteohub,2013-10-19 10:57:00,
2013-10-19 06:02:00,36.0,32.2,29.75,WNW,292,0.0,0.0,86,0.00,,,0.00,meteohub,2013-10-19 11:02:00,
2013-10-19 06:07:00,36.0,32.2,29.75,WNW,292,0.0,0.0,86,0.00,,,0.00,meteohub,2013-10-19 11:07:00,
2013-10-19 06:12:00,36.0,32.2,29.75,WNW,291,0.0,0.0,86,0.00,,,0.00,meteohub,2013-10-19 11:12:00,
2013-10-19 06:17:00,36.0,32.5,29.75,WNW,292,0.0,0.0,87,0.00,,,0.00,meteohub,2013-10-19 11:17:00,
2013-10-19 06:22:00,36.0,32.2,29.75,WNW,292,0.0,0.0,86,0.00,,,0.00,meteohub,2013-10-19 11:22:00,
2013-10-19 06:27:00,36.0,32.2,29.75,WNW,295,0.0,0.0,86,0.00,,,0.00,meteohub,2013-10-19 11:27:00,
2013-10-19 06:32:00,36.0,32.5,29.75,WNW,294,0.0,1.0,87,0.00,,,0.00,meteohub,2013-10-19 11:32:00,
2013-10-19 06:37:00,35.8,32.4,29.75,WNW,294,0.0,1.0,87,0.00,,,0.00,meteohub,2013-10-19 11:37:00,
2013-10-19 06:42:00,36.0,32.5,29.75,WNW,295,0.0,0.0,87,0.00,,,0.00,meteohub,2013-10-19 11:42:00,
2013-10-19 06:47:00,36.0,32.5,29.75,WNW,294,2.0,0.0,87,0.00,,,0.00,meteohub,2013-10-19 11:47:00,
2013-10-19 06:52:00,36.0,32.5,29.75,WNW,292,0.0,4.0,87,0.00,,,0.00,meteohub,2013-10-19 11:52:00,
2013-10-19 06:57:00,36.0,32.5,29.75,WNW,293,0.0,4.0,87,0.00,,,0.00,meteohub,2013-10-19 11:57:00,
2013-10-19 07:02:00,36.1,32.7,29.75,WNW,293,0.0,4.0,87,0.00,,,0.00,meteohub,2013-10-19 12:02:00,
2013-10-19 07:07:00,36.1,32.7,29.75,WNW,292,0.0,3.0,87,0.00,,,0.00,meteohub,2013-10-19 12:07:00,
2013-10-19 07:12:00,36.1,32.7,29.75,WNW,290,0.0,4.0,87,0.00,,,0.00,meteohub,2013-10-19 12:12:00,
2013-10-19 07:17:00,36.3,32.9,29.75,WNW,288,0.0,4.0,87,0.00,,,0.00,meteohub,2013-10-19 12:17:00,
2013-10-19 07:22:00,36.3,32.9,29.75,NNW,336,0.0,4.0,87,0.00,,,0.00,meteohub,2013-10-19 12:22:00,
2013-10-19 07:27:00,36.3,33.1,29.75,NNW,336,0.0,3.0,88,0.00,,,0.00,meteohub,2013-10-19 12:27:00,
2013-10-19 07:32:00,36.5,33.1,29.75,WNW,292,0.0,3.0,87,0.00,,,0.00,meteohub,2013-10-19 12:32:00,
2013-10-19 07:37:00,36.7,33.4,29.75,WNW,292,0.0,2.0,88,0.00,,,0.00,meteohub,2013-10-19 12:37:00,
2013-10-19 07:42:00,36.7,33.4,29.75,WNW,291,0.0,3.0,88,0.00,,,0.00,meteohub,2013-10-19 12:42:00,
2013-10-19 07:47:00,36.7,33.4,29.75,NNW,331,0.0,3.0,88,0.00,,,0.00,meteohub,2013-10-19 12:47:00,
2013-10-19 07:52:00,36.7,33.4,29.75,NNW,331,0.0,3.0,88,0.00,,,0.00,meteohub,2013-10-19 12:52:00,
2013-10-19 07:57:00,36.9,33.6,29.75,NW,309,0.0,3.0,88,0.00,,,0.00,meteohub,2013-10-19 12:57:00,
2013-10-19 08:02:00,36.9,33.6,29.75,NW,309,0.0,3.0,88,0.00,,,0.00,meteohub,2013-10-19 13:02:00,
2013-10-19 08:07:00,36.9,33.6,29.75,NW,309,0.0,3.0,88,0.00,,,0.00,meteohub,2013-10-19 13:07:00,
2013-10-19 08:12:00,37.0,33.8,29.75,NW,309,0.0,3.0,88,0.00,,,0.00,meteohub,2013-10-19 13:12:00,
2013-10-19 08:17:00,37.0,33.8,29.74,NW,309,0.0,2.0,88,0.00,,,0.00,meteohub,2013-10-19 13:17:00,
2013-10-19 08:22:00,37.0,33.8,29.74,NW,307,0.0,2.0,88,0.00,,,0.00,meteohub,2013-10-19 13:22:00,
2013-10-19 08:27:00,37.2,34.0,29.74,NW,308,0.0,2.0,88,0.00,,,0.00,meteohub,2013-10-19 13:27:00,
2013-10-19 08:32:00,37.2,34.0,29.74,NW,308,0.0,2.0,88,0.00,,,0.00,meteohub,2013-10-19 13:32:00,
2013-10-19 08:37:00,37.2,34.0,29.74,NW,308,0.0,3.0,88,0.00,,,0.00,meteohub,2013-10-19 13:37:00,
2013-10-19 08:42:00,37.4,34.2,29.74,NW,307,0.0,4.0,88,0.01,,,0.01,meteohub,2013-10-19 13:42:00,
2013-10-19 08:47:00,37.6,34.3,29.74,NW,307,0.0,4.0,88,0.01,,,0.01,meteohub,2013-10-19 13:47:00,
2013-10-19 08:52:00,37.6,34.3,29.74,NW,308,0.0,4.0,88,0.01,,,0.01,meteohub,2013-10-19 13:52:00,
2013-10-19 08:57:00,37.8,34.5,29.74,NW,307,0.0,2.0,88,0.01,,,0.01,meteohub,2013-10-19 13:57:00,
2013-10-19 09:02:00,37.8,34.5,29.74,NW,307,0.0,1.0,88,0.01,,,0.01,meteohub,2013-10-19 14:02:00,
2013-10-19 09:07:00,37.8,34.5,29.74,NW,307,1.0,1.0,88,0.01,,,0.01,meteohub,2013-10-19 14:07:00,
2013-10-19 09:12:00,37.9,34.7,29.74,North,9,0.0,3.0,88,0.01,,,0.01,meteohub,2013-10-19 14:12:00,
2013-10-19 09:17:00,38.1,34.9,29.74,WNW,292,0.0,3.0,88,0.01,,,0.01,meteohub,2013-10-19 14:17:00,
2013-10-19 09:22:00,38.3,35.4,29.74,WNW,286,0.0,5.0,89,0.01,,,0.01,meteohub,2013-10-19 14:22:00,
2013-10-19 09:27:00,38.5,35.6,29.74,West,275,0.0,5.0,89,0.01,,,0.01,meteohub,2013-10-19 14:27:00,
2013-10-19 09:32:00,38.5,35.6,29.74,NW,317,0.0,5.0,89,0.01,,,0.01,meteohub,2013-10-19 14:32:00,
2013-10-19 09:37:00,38.7,35.4,29.74,West,261,0.0,4.0,88,0.00,,,0.01,meteohub,2013-10-19 14:37:00,
2013-10-19 09:42:00,38.7,35.4,29.74,West,262,0.0,7.0,88,0.00,,,0.01,meteohub,2013-10-19 14:42:00,
2013-10-19 09:47:00,38.8,35.6,29.74,West,261,0.0,7.0,88,0.00,,,0.01,meteohub,2013-10-19 14:47:00,
2013-10-19 09:52:00,38.8,35.6,29.74,West,261,0.0,7.0,88,0.00,,,0.01,meteohub,2013-10-19 14:52:00,
2013-10-19 09:57:00,39.0,36.1,29.74,NNW,337,0.0,3.0,89,0.00,,,0.01,meteohub,2013-10-19 14:57:00,
2013-10-19 10:02:00,39.2,36.3,29.74,West,264,0.0,4.0,89,0.00,,,0.01,meteohub,2013-10-19 15:02:00,
2013-10-19 10:07:00,39.4,36.1,29.74,NNE,32,3.0,4.0,88,0.00,,,0.01,meteohub,2013-10-19 15:07:00,
2013-10-19 10:12:00,39.4,36.1,29.74,NW,318,3.0,4.0,88,0.00,,,0.01,meteohub,2013-10-19 15:12:00,
2013-10-19 10:17:00,39.6,36.3,29.74,NW,312,0.0,4.0,88,0.00,,,0.01,meteohub,2013-10-19 15:17:00,
2013-10-19 10:22:00,39.7,36.5,29.74,NE,49,0.0,4.0,88,0.00,,,0.01,meteohub,2013-10-19 15:22:00,
2013-10-19 10:27:00,39.7,36.5,29.73,WNW,283,3.0,5.0,88,0.00,,,0.01,meteohub,2013-10-19 15:27:00,
2013-10-19 10:32:00,39.9,36.7,29.74,WSW,254,2.0,6.0,88,0.00,,,0.01,meteohub,2013-10-19 15:32:00,
2013-10-19 10:37:00,40.1,36.9,29.73,WSW,254,0.0,6.0,88,0.00,,,0.01,meteohub,2013-10-19 15:37:00,
2013-10-19 10:42:00,40.3,37.0,29.73,West,267,0.0,6.0,88,0.00,,,0.01,meteohub,2013-10-19 15:42:00,
2013-10-19 10:47:00,40.5,37.2,29.73,NNW,336,0.0,4.0,88,0.00,,,0.01,meteohub,2013-10-19 15:47:00,
2013-10-19 10:52:00,40.6,37.4,29.73,NNE,33,1.0,7.0,88,0.00,,,0.01,meteohub,2013-10-19 15:52:00,
2013-10-19 10:57:00,41.0,37.8,29.73,ENE,63,0.0,7.0,88,0.00,,,0.01,meteohub,2013-10-19 15:57:00,
2013-10-19 11:02:00,41.4,38.1,29.73,WNW,283,0.0,7.0,88,0.00,,,0.01,meteohub,2013-10-19 16:02:00,
2013-10-19 11:07:00,41.5,38.3,29.72,NNW,336,0.0,7.0,88,0.00,,,0.01,meteohub,2013-10-19 16:07:00,
2013-10-19 11:12:00,41.7,38.5,29.72,NE,42,2.0,7.0,88,0.00,,,0.01,meteohub,2013-10-19 16:12:00,
2013-10-19 11:17:00,42.1,38.5,29.72,SSE,163,1.0,7.0,87,0.00,,,0.01,meteohub,2013-10-19 16:17:00,
2013-10-19 11:22:00,42.3,38.7,29.72,NE,55,0.0,5.0,87,0.00,,,0.01,meteohub,2013-10-19 16:22:00,
2013-10-19 11:27:00,42.4,38.8,29.72,NE,45,0.0,5.0,87,0.00,,,0.01,meteohub,2013-10-19 16:27:00,
2013-10-19 11:32:00,42.6,39.0,29.72,WSW,253,0.0,5.0,87,0.00,,,0.01,meteohub,2013-10-19 16:32:00,
2013-10-19 11:37:00,42.8,38.8,29.72,NE,40,0.0,6.0,86,0.00,,,0.01,meteohub,2013-10-19 16:37:00,
2013-10-19 11:42:00,43.0,39.0,29.72,NW,304,0.0,6.0,86,0.00,,,0.01,meteohub,2013-10-19 16:42:00,
2013-10-19 11:47:00,43.2,39.2,29.72,North,355,0.0,6.0,86,0.00,,,0.01,meteohub,2013-10-19 16:47:00,
2013-10-19 11:52:00,43.2,39.0,29.72,NE,34,2.0,4.0,85,0.00,,,0.01,meteohub,2013-10-19 16:52:00,
2013-10-19 11:57:00,43.3,39.2,29.72,WNW,302,0.0,5.0,85,0.00,,,0.01,meteohub,2013-10-19 16:57:00,
2013-10-19 12:02:00,43.3,38.8,29.72,North,5,2.0,5.0,84,0.00,,,0.01,meteohub,2013-10-19 17:02:00,
2013-10-19 12:07:00,43.5,39.0,29.72,WNW,290,0.0,6.0,84,0.00,,,0.01,meteohub,2013-10-19 17:07:00,
2013-10-19 12:12:00,43.5,38.7,29.72,NNE,29,0.0,6.0,83,0.00,,,0.01,meteohub,2013-10-19 17:12:00,
2013-10-19 12:17:00,43.5,38.7,29.72,North,11,0.0,6.0,83,0.00,,,0.01,meteohub,2013-10-19 17:17:00,
2013-10-19 12:22:00,43.9,38.7,29.71,WNW,290,0.0,10.0,82,0.00,,,0.01,meteohub,2013-10-19 17:22:00,
2013-10-19 12:27:00,44.1,38.8,29.71,West,267,0.0,10.0,82,0.00,,,0.01,meteohub,2013-10-19 17:27:00,
2013-10-19 12:32:00,44.2,39.0,29.71,WSW,254,0.0,8.0,82,0.00,,,0.01,meteohub,2013-10-19 17:32:00,
2013-10-19 12:37:00,44.6,39.2,29.71,NW,304,0.0,4.0,81,0.00,,,0.01,meteohub,2013-10-19 17:37:00,
2013-10-19 12:42:00,45.0,39.6,29.71,NE,38,0.0,7.0,81,0.00,,,0.01,meteohub,2013-10-19 17:42:00,
2013-10-19 12:47:00,45.3,39.6,29.71,North,351,0.0,7.0,80,0.00,,,0.01,meteohub,2013-10-19 17:47:00,
2013-10-19 12:52:00,45.7,39.9,29.70,WSW,255,1.0,7.0,80,0.00,,,0.01,meteohub,2013-10-19 17:52:00,
2013-10-19 12:57:00,45.9,39.7,29.70,NE,54,0.0,6.0,79,0.00,,,0.01,meteohub,2013-10-19 17:57:00,
2013-10-19 13:02:00,45.9,39.0,29.70,ENE,76,5.0,6.0,77,0.00,,,0.01,meteohub,2013-10-19 18:02:00,
2013-10-19 13:07:00,45.5,38.7,29.71,WSW,252,0.0,6.0,77,0.00,,,0.01,meteohub,2013-10-19 18:07:00,
2013-10-19 13:12:00,45.5,39.0,29.71,ENE,69,1.0,9.0,78,0.00,,,0.01,meteohub,2013-10-19 18:12:00,
2013-10-19 13:17:00,45.7,39.6,29.70,NNE,33,0.0,9.0,79,0.00,,,0.01,meteohub,2013-10-19 18:17:00,
2013-10-19 13:22:00,46.0,39.9,29.70,WNW,286,2.0,8.0,79,0.00,,,0.01,meteohub,2013-10-19 18:22:00,
2013-10-19 13:27:00,46.4,40.3,29.70,NNE,32,0.0,6.0,79,0.00,,,0.01,meteohub,2013-10-19 18:27:00,
2013-10-19 13:32:00,46.6,40.1,29.70,NE,42,0.0,6.0,78,0.00,,,0.01,meteohub,2013-10-19 18:32:00,
2013-10-19 13:37:00,46.4,39.9,29.70,NE,38,4.0,4.0,78,0.00,,,0.01,meteohub,2013-10-19 18:37:00,
2013-10-19 13:42:00,46.2,39.4,29.70,NE,44,0.0,4.0,77,0.00,,,0.01,meteohub,2013-10-19 18:42:00,
2013-10-19 13:47:00,46.2,39.0,29.69,NE,34,0.0,5.0,76,0.00,,,0.01,meteohub,2013-10-19 18:47:00,
2013-10-19 13:52:00,46.6,39.4,29.69,NNW,329,0.0,5.0,76,0.00,,,0.01,meteohub,2013-10-19 18:52:00,
2013-10-19 13:57:00,47.1,40.3,29.69,NW,315,0.0,4.0,77,0.00,,,0.01,meteohub,2013-10-19 18:57:00,
2013-10-19 14:02:00,47.5,39.9,29.69,NE,38,1.0,4.0,75,0.00,,,0.01,meteohub,2013-10-19 19:02:00,
2013-10-19 14:07:00,47.5,39.6,29.69,NE,53,6.0,6.0,74,0.00,,,0.01,meteohub,2013-10-19 19:07:00,
2013-10-19 14:12:00,47.1,38.8,29.70,NE,37,0.0,10.0,73,0.00,,,0.01,meteohub,2013-10-19 19:12:00,
2013-10-19 14:17:00,46.8,38.5,29.70,East,83,0.0,10.0,73,0.00,,,0.01,meteohub,2013-10-19 19:17:00,
2013-10-19 14:22:00,46.2,38.5,29.70,NE,44,0.0,10.0,74,0.00,,,0.01,meteohub,2013-10-19 19:22:00,
2013-10-19 14:27:00,45.7,38.3,29.70,NE,56,0.0,6.0,75,0.00,,,0.01,meteohub,2013-10-19 19:27:00,
2013-10-19 14:32:00,45.1,37.9,29.71,ENE,61,1.0,6.0,76,0.01,,,0.02,meteohub,2013-10-19 19:32:00,
2013-10-19 14:37:00,44.8,37.9,29.71,ENE,67,1.0,7.0,77,0.01,,,0.02,meteohub,2013-10-19 19:37:00,
2013-10-19 14:42:00,44.6,38.1,29.71,ENE,71,3.0,7.0,78,0.01,,,0.02,meteohub,2013-10-19 19:42:00,
2013-10-19 14:47:00,44.6,38.5,29.71,East,80,3.0,7.0,79,0.01,,,0.02,meteohub,2013-10-19 19:47:00,
2013-10-19 14:52:00,45.0,39.2,29.71,NE,55,1.0,5.0,80,0.01,,,0.02,meteohub,2013-10-19 19:52:00,
2013-10-19 14:57:00,45.1,39.4,29.71,NE,38,1.0,5.0,80,0.01,,,0.02,meteohub,2013-10-19 19:57:00,
2013-10-19 15:02:00,45.3,39.6,29.72,NE,37,1.0,6.0,80,0.01,,,0.02,meteohub,2013-10-19 20:02:00,
2013-10-19 15:07:00,45.3,39.2,29.72,NE,36,1.0,6.0,79,0.01,,,0.02,meteohub,2013-10-19 20:07:00,
2013-10-19 15:12:00,45.7,39.6,29.72,NE,45,0.0,6.0,79,0.01,,,0.02,meteohub,2013-10-19 20:12:00,
2013-10-19 15:17:00,46.0,39.9,29.72,NE,47,0.0,6.0,79,0.01,,,0.02,meteohub,2013-10-19 20:17:00,
2013-10-19 15:22:00,46.2,40.1,29.72,East,79,0.0,5.0,79,0.01,,,0.02,meteohub,2013-10-19 20:22:00,
2013-10-19 15:27:00,46.2,39.7,29.73,ENE,74,2.0,6.0,78,0.01,,,0.02,meteohub,2013-10-19 20:27:00,
2013-10-19 15:32:00,46.0,38.8,29.73,NNE,26,0.0,6.0,76,0.00,,,0.02,meteohub,2013-10-19 20:32:00,
2013-10-19 15:37:00,46.0,38.5,29.73,NE,34,0.0,5.0,75,0.00,,,0.02,meteohub,2013-10-19 20:37:00,
2013-10-19 15:42:00,45.9,38.3,29.73,NNE,19,0.0,5.0,75,0.00,,,0.02,meteohub,2013-10-19 20:42:00,
2013-10-19 15:47:00,45.7,38.3,29.73,NNE,19,0.0,4.0,75,0.00,,,0.02,meteohub,2013-10-19 20:47:00,
2013-10-19 15:52:00,45.7,38.3,29.73,East,83,2.0,4.0,75,0.00,,,0.02,meteohub,2013-10-19 20:52:00,
2013-10-19 15:57:00,45.5,38.1,29.73,East,80,2.0,12.0,75,0.00,,,0.02,meteohub,2013-10-19 20:57:00,
2013-10-19 16:02:00,45.1,37.8,29.74,ENE,78,0.0,12.0,75,0.00,,,0.02,meteohub,2013-10-19 21:02:00,
2013-10-19 16:07:00,45.0,37.6,29.74,NNE,30,0.0,12.0,75,0.00,,,0.02,meteohub,2013-10-19 21:07:00,
2013-10-19 16:12:00,44.8,37.4,29.74,North,10,1.0,7.0,75,0.00,,,0.02,meteohub,2013-10-19 21:12:00,
2013-10-19 16:17:00,44.4,37.0,29.74,NNE,32,0.0,7.0,75,0.00,,,0.02,meteohub,2013-10-19 21:17:00,
2013-10-19 16:22:00,44.2,36.9,29.75,NE,34,3.0,7.0,75,0.00,,,0.02,meteohub,2013-10-19 21:22:00,
2013-10-19 16:27:00,44.1,36.7,29.75,NE,42,0.0,5.0,75,0.00,,,0.02,meteohub,2013-10-19 21:27:00,
2013-10-19 16:32:00,44.1,36.7,29.75,North,5,0.0,5.0,75,0.00,,,0.02,meteohub,2013-10-19 21:32:00,
2013-10-19 16:37:00,44.2,36.9,29.75,NNE,26,1.0,5.0,75,0.00,,,0.02,meteohub,2013-10-19 21:37:00,
2013-10-19 16:42:00,44.1,36.7,29.75,NE,45,0.0,5.0,75,0.00,,,0.02,meteohub,2013-10-19 21:42:00,
2013-10-19 16:47:00,44.1,36.3,29.75,NNE,28,1.0,5.0,74,0.00,,,0.02,meteohub,2013-10-19 21:47:00,
2013-10-19 16:52:00,43.9,36.1,29.75,ENE,69,0.0,6.0,74,0.00,,,0.02,meteohub,2013-10-19 21:52:00,
2013-10-19 16:57:00,44.1,36.3,29.76,NE,34,1.0,6.0,74,0.00,,,0.02,meteohub,2013-10-19 21:57:00,
2013-10-19 17:02:00,43.9,36.1,29.76,NE,44,2.0,5.0,74,0.00,,,0.02,meteohub,2013-10-19 22:02:00,
2013-10-19 17:07:00,43.9,36.5,29.76,NE,44,0.0,4.0,75,0.00,,,0.02,meteohub,2013-10-19 22:07:00,
2013-10-19 17:12:00,43.9,36.5,29.76,NNE,26,0.0,4.0,75,0.00,,,0.02,meteohub,2013-10-19 22:12:00,
2013-10-19 17:17:00,43.9,36.5,29.76,NE,44,0.0,3.0,75,0.00,,,0.02,meteohub,2013-10-19 22:17:00,
2013-10-19 17:22:00,43.9,36.5,29.76,NE,37,0.0,4.0,75,0.00,,,0.02,meteohub,2013-10-19 22:22:00,
2013-10-19 17:27:00,43.9,36.5,29.77,WNW,303,0.0,4.0,75,0.00,,,0.02,meteohub,2013-10-19 22:27:00,
2013-10-19 17:32:00,44.1,36.7,29.77,NE,49,0.0,5.0,75,0.00,,,0.02,meteohub,2013-10-19 22:32:00,
2013-10-19 17:37:00,43.9,36.5,29.76,NE,40,0.0,6.0,75,0.00,,,0.02,meteohub,2013-10-19 22:37:00,
2013-10-19 17:42:00,43.7,36.7,29.77,NNE,33,0.0,6.0,76,0.00,,,0.02,meteohub,2013-10-19 22:42:00,
2013-10-19 17:47:00,43.3,36.3,29.77,NE,42,0.0,7.0,76,0.00,,,0.02,meteohub,2013-10-19 22:47:00,
2013-10-19 17:52:00,43.2,36.1,29.77,NNE,32,0.0,7.0,76,0.00,,,0.02,meteohub,2013-10-19 22:52:00,
2013-10-19 17:57:00,42.8,35.8,29.77,NNE,25,0.0,7.0,76,0.00,,,0.02,meteohub,2013-10-19 22:57:00,
2013-10-19 18:02:00,42.6,36.0,29.77,NNE,15,0.0,7.0,77,0.00,,,0.02,meteohub,2013-10-19 23:02:00,
2013-10-19 18:07:00,42.4,36.1,29.77,NNE,19,0.0,5.0,78,0.00,,,0.02,meteohub,2013-10-19 23:07:00,
2013-10-19 18:12:00,42.3,36.0,29.78,NNE,19,0.0,3.0,78,0.00,,,0.02,meteohub,2013-10-19 23:12:00,
2013-10-19 18:17:00,42.1,35.8,29.78,NNE,18,0.0,3.0,78,0.00,,,0.02,meteohub,2013-10-19 23:17:00,
2013-10-19 18:22:00,42.1,36.0,29.78,NNE,19,0.0,2.0,79,0.00,,,0.02,meteohub,2013-10-19 23:22:00,
2013-10-19 18:27:00,41.9,35.8,29.78,NNE,19,0.0,0.0,79,0.00,,,0.02,meteohub,2013-10-19 23:27:00,
2013-10-19 18:32:00,41.7,36.0,29.78,NNE,18,0.0,2.0,80,0.00,,,0.02,meteohub,2013-10-19 23:32:00,
2013-10-19 18:37:00,41.7,36.0,29.78,NNE,18,0.0,3.0,80,0.00,,,0.02,meteohub,2013-10-19 23:37:00,
2013-10-19 18:42:00,41.7,36.0,29.78,NNE,19,0.0,3.0,80,0.00,,,0.02,meteohub,2013-10-19 23:42:00,
2013-10-19 18:47:00,41.5,36.1,29.78,NNE,19,0.0,3.0,81,0.00,,,0.02,meteohub,2013-10-19 23:47:00,
2013-10-19 18:52:00,41.5,36.1,29.79,NNE,19,0.0,1.0,81,0.00,,,0.02,meteohub,2013-10-19 23:52:00,
2013-10-19 18:57:00,41.4,36.0,29.79,NNE,18,0.0,1.0,81,0.00,,,0.02,meteohub,2013-10-19 23:57:00,
2013-10-19 19:02:00,41.4,36.3,29.80,NNE,19,0.0,1.0,82,0.00,,,0.02,meteohub,2013-10-20 00:02:00,
2013-10-19 19:07:00,41.4,36.3,29.79,NNE,18,0.0,0.0,82,0.00,,,0.00,meteohub,2013-10-20 00:07:00,
2013-10-19 19:12:00,41.2,36.1,29.80,NNE,18,0.0,0.0,82,0.00,,,0.00,meteohub,2013-10-20 00:12:00,
2013-10-19 19:17:00,41.2,36.1,29.80,NNE,19,0.0,0.0,82,0.00,,,0.00,meteohub,2013-10-20 00:17:00,
2013-10-19 19:22:00,41.0,36.0,29.80,NNE,19,0.0,0.0,82,0.00,,,0.00,meteohub,2013-10-20 00:22:00,
2013-10-19 19:27:00,40.8,35.8,29.80,NNE,19,0.0,0.0,82,0.00,,,0.00,meteohub,2013-10-20 00:27:00,
2013-10-19 19:32:00,40.8,35.8,29.80,NNE,18,0.0,0.0,82,0.00,,,0.00,meteohub,2013-10-20 00:32:00,
2013-10-19 19:37:00,40.6,35.6,29.80,NNE,19,0.0,0.0,82,0.00,,,0.00,meteohub,2013-10-20 00:37:00,
2013-10-19 19:42:00,40.6,36.0,29.80,NNE,19,0.0,0.0,83,0.00,,,0.00,meteohub,2013-10-20 00:42:00,
2013-10-19 19:47:00,40.5,35.4,29.80,NNE,19,0.0,0.0,82,0.00,,,0.00,meteohub,2013-10-20 00:47:00,
2013-10-19 19:52:00,40.5,35.8,29.81,NNE,18,0.0,0.0,83,0.00,,,0.00,meteohub,2013-10-20 00:52:00,
2013-10-19 19:57:00,40.3,35.6,29.81,NNE,19,0.0,0.0,83,0.00,,,0.00,meteohub,2013-10-20 00:57:00,
2013-10-19 20:02:00,40.3,35.6,29.81,NNE,19,0.0,0.0,83,0.00,,,0.00,meteohub,2013-10-20 01:02:00,
2013-10-19 20:07:00,40.1,35.4,29.81,NNE,18,0.0,0.0,83,0.00,,,0.00,meteohub,2013-10-20 01:07:00,
2013-10-19 20:12:00,39.9,34.9,29.81,NNE,19,0.0,0.0,82,0.00,,,0.00,meteohub,2013-10-20 01:12:00,
2013-10-19 20:17:00,39.7,34.7,29.81,NNE,19,0.0,0.0,82,0.00,,,0.00,meteohub,2013-10-20 01:17:00,
2013-10-19 20:22:00,39.7,34.7,29.81,NNE,19,0.0,0.0,82,0.00,,,0.00,meteohub,2013-10-20 01:22:00,
2013-10-19 20:27:00,39.6,34.9,29.81,NNE,18,0.0,0.0,83,0.00,,,0.00,meteohub,2013-10-20 01:27:00,
2013-10-19 20:32:00,39.4,34.7,29.81,NNE,19,0.0,0.0,83,0.00,,,0.00,meteohub,2013-10-20 01:32:00,
2013-10-19 20:37:00,39.2,34.2,29.82,NNE,19,0.0,0.0,82,0.00,,,0.00,meteohub,2013-10-20 01:37:00,
2013-10-19 20:42:00,39.0,34.0,29.82,NNE,18,0.0,0.0,82,0.00,,,0.00,meteohub,2013-10-20 01:42:00,
2013-10-19 20:47:00,38.8,34.2,29.82,NNE,18,0.0,0.0,83,0.00,,,0.00,meteohub,2013-10-20 01:47:00,
2013-10-19 20:52:00,38.7,34.0,29.82,NNE,19,0.0,0.0,83,0.00,,,0.00,meteohub,2013-10-20 01:52:00,
2013-10-19 20:57:00,38.5,33.8,29.82,NNE,19,0.0,0.0,83,0.00,,,0.00,meteohub,2013-10-20 01:57:00,
2013-10-19 21:02:00,38.3,33.6,29.82,NNE,19,0.0,0.0,83,0.00,,,0.00,meteohub,2013-10-20 02:02:00,
2013-10-19 21:07:00,38.1,33.4,29.82,NNE,18,0.0,0.0,83,0.00,,,0.00,meteohub,2013-10-20 02:07:00,
2013-10-19 21:12:00,37.9,33.3,29.82,NNE,19,0.0,0.0,83,0.00,,,0.00,meteohub,2013-10-20 02:12:00,
2013-10-19 21:17:00,37.8,33.1,29.82,NNE,19,0.0,0.0,83,0.00,,,0.00,meteohub,2013-10-20 02:17:00,
2013-10-19 21:22:00,37.6,32.9,29.82,North,10,0.0,0.0,83,0.00,,,0.00,meteohub,2013-10-20 02:22:00,
2013-10-19 21:27:00,37.4,32.7,29.82,North,10,0.0,0.0,83,0.00,,,0.00,meteohub,2013-10-20 02:27:00,
2013-10-19 21:32:00,37.2,32.5,29.82,North,11,0.0,0.0,83,0.00,,,0.00,meteohub,2013-10-20 02:32:00,
2013-10-19 21:37:00,37.2,32.5,29.82,North,11,0.0,0.0,83,0.00,,,0.00,meteohub,2013-10-20 02:37:00,
2013-10-19 21:42:00,37.0,32.4,29.82,North,11,0.0,0.0,83,0.00,,,0.00,meteohub,2013-10-20 02:42:00,
2013-10-19 21:47:00,36.9,32.2,29.83,North,10,0.0,0.0,83,0.00,,,0.00,meteohub,2013-10-20 02:47:00,
2013-10-19 21:52:00,36.9,32.2,29.83,North,11,0.0,0.0,83,0.00,,,0.00,meteohub,2013-10-20 02:52:00,
2013-10-19 21:57:00,36.7,32.0,29.83,North,10,0.0,0.0,83,0.00,,,0.00,meteohub,2013-10-20 02:57:00,
2013-10-19 22:02:00,36.7,32.0,29.83,North,10,0.0,0.0,83,0.00,,,0.00,meteohub,2013-10-20 03:02:00,
2013-10-19 22:07:00,36.5,31.8,29.83,North,11,0.0,0.0,83,0.00,,,0.00,meteohub,2013-10-20 03:07:00,
2013-10-19 22:12:00,36.3,31.6,29.83,North,11,0.0,0.0,83,0.00,,,0.00,meteohub,2013-10-20 03:12:00,
2013-10-19 22:17:00,36.1,31.5,29.83,North,11,0.0,0.0,83,0.00,,,0.00,meteohub,2013-10-20 03:17:00,
2013-10-19 22:22:00,36.1,31.5,29.83,North,10,0.0,0.0,83,0.00,,,0.00,meteohub,2013-10-20 03:22:00,
2013-10-19 22:27:00,36.0,31.3,29.83,North,10,0.0,0.0,83,0.00,,,0.00,meteohub,2013-10-20 03:27:00,
2013-10-19 22:32:00,36.0,31.3,29.83,North,11,0.0,0.0,83,0.00,,,0.00,meteohub,2013-10-20 03:32:00,
2013-10-19 22:37:00,35.8,31.1,29.83,North,11,0.0,0.0,83,0.00,,,0.00,meteohub,2013-10-20 03:37:00,
2013-10-19 22:42:00,35.6,31.3,29.83,North,11,0.0,0.0,84,0.00,,,0.00,meteohub,2013-10-20 03:42:00,
2013-10-19 22:47:00,35.4,30.7,29.83,North,11,0.0,0.0,83,0.00,,,0.00,meteohub,2013-10-20 03:47:00,
2013-10-19 22:52:00,35.2,30.6,29.83,North,10,0.0,0.0,83,0.00,,,0.00,meteohub,2013-10-20 03:52:00,
2013-10-19 22:57:00,35.2,30.6,29.83,North,10,0.0,0.0,83,0.00,,,0.00,meteohub,2013-10-20 03:57:00,
2013-10-19 23:01:00,35.2,30.9,29.83,North,10,0.0,0.0,84,0.00,,,0.00,meteohub,2013-10-20 04:01:00,
2013-10-19 23:02:00,35.1,30.7,29.83,North,10,0.0,0.0,84,0.00,,,0.00,meteohub,2013-10-20 04:02:00,
2013-10-19 23:03:00,35.1,30.7,29.83,North,11,0.0,0.0,84,0.00,,,0.00,meteohub,2013-10-20 04:03:00,
2013-10-19 23:08:00,35.1,30.4,29.83,North,11,0.0,0.0,83,0.00,,,0.00,meteohub,2013-10-20 04:08:00,
2013-10-19 23:13:00,34.9,30.6,29.83,North,11,0.0,0.0,84,0.00,,,0.00,meteohub,2013-10-20 04:13:00,
2013-10-19 23:18:00,34.5,30.2,29.83,North,10,0.0,0.0,84,0.00,,,0.00,meteohub,2013-10-20 04:18:00,
2013-10-19 23:23:00,34.3,30.0,29.83,North,10,0.0,0.0,84,0.00,,,0.00,meteohub,2013-10-20 04:23:00,
2013-10-19 23:28:00,34.3,30.0,29.83,North,10,0.0,0.0,84,0.00,,,0.00,meteohub,2013-10-20 04:28:00,
2013-10-19 23:33:00,34.3,30.0,29.83,North,11,0.0,0.0,84,0.00,,,0.00,meteohub,2013-10-20 04:33:00,
2013-10-19 23:38:00,34.2,29.8,29.83,North,11,0.0,0.0,84,0.00,,,0.00,meteohub,2013-10-20 04:38:00,
2013-10-19 23:43:00,34.2,29.8,29.83,North,10,0.0,0.0,84,0.00,,,0.00,meteohub,2013-10-20 04:43:00,
2013-10-19 23:48:00,34.0,29.7,29.83,North,11,0.0,0.0,84,0.00,,,0.00,meteohub,2013-10-20 04:48:00,
2013-10-19 23:54:00,33.8,29.5,29.83,North,11,0.0,0.0,84,0.00,,,0.00,meteohub,2013-10-20 04:54:00,
2013-10-19 23:59:00,33.6,29.3,29.83,North,11,0.0,0.0,84,0.00,,,0.00,meteohub,2013-10-20 04:59:00,